Sekuruwe, South Africa
Current Conditions -  °F | °C
As of 12:00 PM on Sunday 21 Dec 2014 (Local Time) from FAPP Reporting Station
Scattered Clouds Scattered Clouds  
Wind Chill: 79°   Ceiling: Unl
Heat Index: 80°   Visibility: 6mi
Dew Point: 59°   Wind: 8mph
Humidity: 51%   Direction: 20°NNE
Pressure: 30.09"   Gusts: NA
Location:  23.95°S, 28.93°E
Report Text: FAPP 211000Z 02007KT 9999 SCT040 26/15 Q1019 NOSIG
Loading
Personal Weather Stations






























Interactive Weather Map New forecast layout! Learn more

10-Day Weather Forecast

Advertisements
Track Severe Weather on mobile